sensor_id;sensor_type;location;lat;lon;timestamp;P1;durP1;ratioP1;P2;durP2;ratioP2
37288;SDS011;23174;49.462;11.000;2022-11-20T00:00:35;11.60;;;10.48;;
37288;SDS011;23174;49.462;11.000;2022-11-20T00:02:36;11.52;;;10.43;;
37288;SDS011;23174;49.462;11.000;2022-11-20T00:04:36;11.02;;;10.05;;
37288;SDS011;23174;49.462;11.000;2022-11-20T00:06:37;11.77;;;10.77;;
37288;SDS011;23174;49.462;11.000;2022-11-20T00:08:38;11.82;;;10.73;;
37288;SDS011;23174;49.462;11.000;2022-11-20T00:10:39;11.00;;;10.00;;
37288;SDS011;23174;49.462;11.000;2022-11-20T00:12:40;12.07;;;10.88;;
37288;SDS011;23174;49.462;11.000;2022-11-20T00:14:40;13.20;;;11.15;;
37288;SDS011;23174;49.462;11.000;2022-11-20T00:16:41;12.57;;;11.35;;
37288;SDS011;23174;49.462;11.000;2022-11-20T00:18:42;13.13;;;11.93;;
37288;SDS011;23174;49.462;11.000;2022-11-20T00:20:43;12.48;;;11.20;;
37288;SDS011;23174;49.462;11.000;2022-11-20T00:22:44;11.70;;;10.70;;
37288;SDS011;23174;49.462;11.000;2022-11-20T00:24:44;12.73;;;11.52;;
37288;SDS011;23174;49.462;11.000;2022-11-20T00:26:45;12.43;;;11.25;;
37288;SDS011;23174;49.462;11.000;2022-11-20T00:28:56;12.70;;;11.55;;
37288;SDS011;23174;49.462;11.000;2022-11-20T00:31:02;11.50;;;10.40;;
37288;SDS011;23174;49.462;11.000;2022-11-20T00:33:04;11.40;;;10.40;;
37288;SDS011;23174;49.462;11.000;2022-11-20T00:35:05;12.57;;;11.38;;
37288;SDS011;23174;49.462;11.000;2022-11-20T00:37:06;11.75;;;10.75;;
37288;SDS011;23174;49.462;11.000;2022-11-20T00:39:06;12.10;;;10.95;;
37288;SDS011;23174;49.462;11.000;2022-11-20T00:41:08;12.05;;;10.95;;
37288;SDS011;23174;49.462;11.000;2022-11-20T00:43:09;12.50;;;11.20;;
37288;SDS011;23174;49.462;11.000;2022-11-20T00:45:10;11.65;;;10.65;;
37288;SDS011;23174;49.462;11.000;2022-11-20T00:47:10;12.32;;;11.13;;
37288;SDS011;23174;49.462;11.000;2022-11-20T00:49:11;11.90;;;10.90;;
37288;SDS011;23174;49.462;11.000;2022-11-20T00:51:12;12.60;;;10.88;;
37288;SDS011;23174;49.462;11.000;2022-11-20T00:53:14;11.88;;;10.77;;
37288;SDS011;23174;49.462;11.000;2022-11-20T00:55:15;12.50;;;11.40;;
37288;SDS011;23174;49.462;11.000;2022-11-20T00:57:16;12.27;;;11.07;;
37288;SDS011;23174;49.462;11.000;2022-11-20T00:59:16;13.25;;;11.95;;
37288;SDS011;23174;49.462;11.000;2022-11-20T01:01:18;11.90;;;10.70;;
37288;SDS011;23174;49.462;11.000;2022-11-20T01:03:20;10.25;;;9.20;;
37288;SDS011;23174;49.462;11.000;2022-11-20T01:05:21;1.88;;;1.63;;
37288;SDS011;23174;49.462;11.000;2022-11-20T01:07:21;6.82;;;4.80;;
37288;SDS011;23174;49.462;11.000;2022-11-20T01:09:22;6.90;;;5.18;;
37288;SDS011;23174;49.462;11.000;2022-11-20T01:11:24;1.92;;;0.70;;
37288;SDS011;23174;49.462;11.000;2022-11-20T01:13:29;1.48;;;1.40;;
37288;SDS011;23174;49.462;11.000;2022-11-20T01:15:36;0.45;;;0.45;;
37288;SDS011;23174;49.462;11.000;2022-11-20T01:17:37;4.80;;;2.58;;
37288;SDS011;23174;49.462;11.000;2022-11-20T01:19:38;2.40;;;1.65;;
37288;SDS011;23174;49.462;11.000;2022-11-20T01:21:39;1.25;;;1.15;;
37288;SDS011;23174;49.462;11.000;2022-11-20T01:23:41;1.00;;;1.00;;
37288;SDS011;23174;49.462;11.000;2022-11-20T01:25:44;3.28;;;2.65;;
37288;SDS011;23174;49.462;11.000;2022-11-20T01:27:44;9.70;;;6.32;;
37288;SDS011;23174;49.462;11.000;2022-11-20T01:29:45;7.00;;;5.65;;
37288;SDS011;23174;49.462;11.000;2022-11-20T01:31:45;5.82;;;4.82;;
37288;SDS011;23174;49.462;11.000;2022-11-20T01:33:47;9.13;;;7.07;;
37288;SDS011;23174;49.462;11.000;2022-11-20T01:35:49;7.03;;;4.15;;
37288;SDS011;23174;49.462;11.000;2022-11-20T01:37:50;5.43;;;3.83;;
37288;SDS011;23174;49.462;11.000;2022-11-20T01:39:50;9.88;;;7.03;;
37288;SDS011;23174;49.462;11.000;2022-11-20T01:41:51;9.80;;;8.80;;
37288;SDS011;23174;49.462;11.000;2022-11-20T01:44:12;15.43;;;12.23;;
37288;SDS011;23174;49.462;11.000;2022-11-20T01:46:16;14.75;;;13.23;;
37288;SDS011;23174;49.462;11.000;2022-11-20T01:48:18;16.13;;;14.43;;
37288;SDS011;23174;49.462;11.000;2022-11-20T01:50:22;15.88;;;14.30;;
37288;SDS011;23174;49.462;11.000;2022-11-20T01:52:31;16.58;;;14.88;;
37288;SDS011;23174;49.462;11.000;2022-11-20T01:54:39;16.30;;;14.68;;
37288;SDS011;23174;49.462;11.000;2022-11-20T01:56:44;17.08;;;15.27;;
37288;SDS011;23174;49.462;11.000;2022-11-20T01:58:48;16.27;;;14.50;;
37288;SDS011;23174;49.462;11.000;2022-11-20T02:00:53;16.60;;;14.88;;
37288;SDS011;23174;49.462;11.000;2022-11-20T02:02:54;16.45;;;14.90;;
37288;SDS011;23174;49.462;11.000;2022-11-20T02:05:00;18.10;;;15.27;;
37288;SDS011;23174;49.462;11.000;2022-11-20T02:07:06;15.65;;;14.15;;
37288;SDS011;23174;49.462;11.000;2022-11-20T02:09:08;17.58;;;15.88;;
37288;SDS011;23174;49.462;11.000;2022-11-20T02:11:08;17.40;;;15.63;;
37288;SDS011;23174;49.462;11.000;2022-11-20T02:13:09;17.27;;;15.60;;
37288;SDS011;23174;49.462;11.000;2022-11-20T02:15:28;18.35;;;16.60;;
37288;SDS011;23174;49.462;11.000;2022-11-20T02:17:29;18.08;;;16.20;;
37288;SDS011;23174;49.462;11.000;2022-11-20T02:19:30;17.13;;;15.40;;
37288;SDS011;23174;49.462;11.000;2022-11-20T02:23:54;16.58;;;14.88;;
37288;SDS011;23174;49.462;11.000;2022-11-20T02:26:04;18.30;;;16.43;;
37288;SDS011;23174;49.462;11.000;2022-11-20T02:28:09;17.40;;;15.60;;
37288;SDS011;23174;49.462;11.000;2022-11-20T02:30:10;16.83;;;15.07;;
37288;SDS011;23174;49.462;11.000;2022-11-20T02:32:18;17.08;;;15.25;;
37288;SDS011;23174;49.462;11.000;2022-11-20T02:34:26;16.08;;;14.48;;
37288;SDS011;23174;49.462;11.000;2022-11-20T02:36:27;16.58;;;14.93;;
37288;SDS011;23174;49.462;11.000;2022-11-20T02:38:28;16.25;;;14.52;;
37288;SDS011;23174;49.462;11.000;2022-11-20T02:40:29;16.63;;;15.00;;
37288;SDS011;23174;49.462;11.000;2022-11-20T02:42:29;16.50;;;14.80;;
37288;SDS011;23174;49.462;11.000;2022-11-20T02:44:30;16.42;;;14.73;;
37288;SDS011;23174;49.462;11.000;2022-11-20T02:46:31;15.85;;;14.35;;
37288;SDS011;23174;49.462;11.000;2022-11-20T02:48:32;15.85;;;14.23;;
37288;SDS011;23174;49.462;11.000;2022-11-20T02:50:33;15.73;;;14.23;;
37288;SDS011;23174;49.462;11.000;2022-11-20T02:52:36;16.30;;;14.80;;
37288;SDS011;23174;49.462;11.000;2022-11-20T02:54:36;16.60;;;15.00;;
37288;SDS011;23174;49.462;11.000;2022-11-20T02:56:37;15.10;;;13.60;;
37288;SDS011;23174;49.462;11.000;2022-11-20T02:58:39;14.73;;;13.32;;
37288;SDS011;23174;49.462;11.000;2022-11-20T03:00:39;15.57;;;13.90;;
37288;SDS011;23174;49.462;11.000;2022-11-20T03:02:40;16.20;;;14.40;;
37288;SDS011;23174;49.462;11.000;2022-11-20T03:04:40;15.18;;;13.68;;
37288;SDS011;23174;49.462;11.000;2022-11-20T03:06:41;15.38;;;13.90;;
37288;SDS011;23174;49.462;11.000;2022-11-20T03:08:42;15.52;;;13.95;;
37288;SDS011;23174;49.462;11.000;2022-11-20T03:10:42;15.48;;;13.98;;
37288;SDS011;23174;49.462;11.000;2022-11-20T03:12:43;15.13;;;13.63;;
37288;SDS011;23174;49.462;11.000;2022-11-20T03:14:44;14.82;;;13.32;;
37288;SDS011;23174;49.462;11.000;2022-11-20T03:16:44;13.95;;;12.55;;
37288;SDS011;23174;49.462;11.000;2022-11-20T03:18:45;14.77;;;13.35;;
37288;SDS011;23174;49.462;11.000;2022-11-20T03:20:46;15.70;;;14.15;;
37288;SDS011;23174;49.462;11.000;2022-11-20T03:22:46;14.23;;;12.90;;
37288;SDS011;23174;49.462;11.000;2022-11-20T03:24:47;15.82;;;14.32;;
37288;SDS011;23174;49.462;11.000;2022-11-20T03:26:47;14.52;;;13.18;;
37288;SDS011;23174;49.462;11.000;2022-11-20T03:28:52;14.73;;;13.23;;
37288;SDS011;23174;49.462;11.000;2022-11-20T03:30:54;15.00;;;13.43;;
37288;SDS011;23174;49.462;11.000;2022-11-20T03:32:55;13.98;;;12.68;;
37288;SDS011;23174;49.462;11.000;2022-11-20T03:34:55;13.57;;;12.32;;
37288;SDS011;23174;49.462;11.000;2022-11-20T03:36:56;13.32;;;12.10;;
37288;SDS011;23174;49.462;11.000;2022-11-20T03:38:57;13.93;;;12.63;;
37288;SDS011;23174;49.462;11.000;2022-11-20T03:40:59;13.25;;;12.05;;
37288;SDS011;23174;49.462;11.000;2022-11-20T03:43:00;12.85;;;11.55;;
37288;SDS011;23174;49.462;11.000;2022-11-20T03:45:01;14.27;;;12.88;;
37288;SDS011;23174;49.462;11.000;2022-11-20T03:47:01;13.48;;;12.25;;
37288;SDS011;23174;49.462;11.000;2022-11-20T03:49:02;14.50;;;12.98;;
37288;SDS011;23174;49.462;11.000;2022-11-20T03:51:16;13.90;;;12.60;;
37288;SDS011;23174;49.462;11.000;2022-11-20T03:53:21;14.45;;;13.05;;
37288;SDS011;23174;49.462;11.000;2022-11-20T03:55:21;13.35;;;12.15;;
37288;SDS011;23174;49.462;11.000;2022-11-20T03:57:22;13.63;;;12.32;;
37288;SDS011;23174;49.462;11.000;2022-11-20T03:59:22;13.38;;;12.13;;
37288;SDS011;23174;49.462;11.000;2022-11-20T04:01:24;14.70;;;13.32;;
37288;SDS011;23174;49.462;11.000;2022-11-20T04:03:26;13.30;;;12.07;;
37288;SDS011;23174;49.462;11.000;2022-11-20T04:05:27;13.55;;;12.18;;
37288;SDS011;23174;49.462;11.000;2022-11-20T04:07:28;14.00;;;12.70;;
37288;SDS011;23174;49.462;11.000;2022-11-20T04:09:28;14.70;;;13.23;;
37288;SDS011;23174;49.462;11.000;2022-11-20T04:11:30;14.13;;;12.63;;
37288;SDS011;23174;49.462;11.000;2022-11-20T04:13:32;14.23;;;12.82;;
37288;SDS011;23174;49.462;11.000;2022-11-20T04:15:32;13.82;;;12.45;;
37288;SDS011;23174;49.462;11.000;2022-11-20T04:17:33;13.25;;;12.05;;
37288;SDS011;23174;49.462;11.000;2022-11-20T04:19:33;13.15;;;11.88;;
37288;SDS011;23174;49.462;11.000;2022-11-20T04:21:34;13.73;;;12.43;;
37288;SDS011;23174;49.462;11.000;2022-11-20T04:23:35;12.88;;;11.57;;
37288;SDS011;23174;49.462;11.000;2022-11-20T04:25:35;12.50;;;11.32;;
37288;SDS011;23174;49.462;11.000;2022-11-20T04:27:36;13.95;;;12.60;;
37288;SDS011;23174;49.462;11.000;2022-11-20T04:29:36;13.18;;;11.95;;
37288;SDS011;23174;49.462;11.000;2022-11-20T04:31:37;13.35;;;12.07;;
37288;SDS011;23174;49.462;11.000;2022-11-20T04:33:38;13.02;;;11.77;;
37288;SDS011;23174;49.462;11.000;2022-11-20T04:35:39;13.48;;;12.15;;
37288;SDS011;23174;49.462;11.000;2022-11-20T04:37:39;13.15;;;11.95;;
37288;SDS011;23174;49.462;11.000;2022-11-20T04:39:40;13.32;;;12.13;;
37288;SDS011;23174;49.462;11.000;2022-11-20T04:41:40;14.07;;;12.73;;
37288;SDS011;23174;49.462;11.000;2022-11-20T04:43:41;13.45;;;12.18;;
37288;SDS011;23174;49.462;11.000;2022-11-20T04:45:50;13.15;;;11.82;;
37288;SDS011;23174;49.462;11.000;2022-11-20T04:47:54;12.47;;;11.30;;
37288;SDS011;23174;49.462;11.000;2022-11-20T04:49:55;12.80;;;11.63;;
37288;SDS011;23174;49.462;11.000;2022-11-20T04:51:55;13.60;;;12.30;;
37288;SDS011;23174;49.462;11.000;2022-11-20T04:53:56;13.05;;;11.88;;
37288;SDS011;23174;49.462;11.000;2022-11-20T04:56:14;13.45;;;12.15;;
37288;SDS011;23174;49.462;11.000;2022-11-20T04:58:16;13.27;;;12.00;;
37288;SDS011;23174;49.462;11.000;2022-11-20T05:00:17;13.82;;;12.52;;
37288;SDS011;23174;49.462;11.000;2022-11-20T05:02:17;13.90;;;12.63;;
37288;SDS011;23174;49.462;11.000;2022-11-20T05:04:18;14.82;;;13.43;;
37288;SDS011;23174;49.462;11.000;2022-11-20T05:06:20;13.13;;;11.93;;
37288;SDS011;23174;49.462;11.000;2022-11-20T05:08:21;13.07;;;11.93;;
37288;SDS011;23174;49.462;11.000;2022-11-20T05:10:22;13.20;;;11.90;;
37288;SDS011;23174;49.462;11.000;2022-11-20T05:12:22;13.85;;;12.52;;
37288;SDS011;23174;49.462;11.000;2022-11-20T05:14:23;12.80;;;11.60;;
37288;SDS011;23174;49.462;11.000;2022-11-20T05:16:24;13.43;;;12.13;;
37288;SDS011;23174;49.462;11.000;2022-11-20T05:18:25;13.10;;;11.80;;
37288;SDS011;23174;49.462;11.000;2022-11-20T05:20:26;12.95;;;11.75;;
37288;SDS011;23174;49.462;11.000;2022-11-20T05:22:26;13.70;;;12.32;;
37288;SDS011;23174;49.462;11.000;2022-11-20T05:24:27;13.85;;;12.55;;
37288;SDS011;23174;49.462;11.000;2022-11-20T05:26:27;13.38;;;12.13;;
37288;SDS011;23174;49.462;11.000;2022-11-20T05:28:28;12.95;;;11.80;;
37288;SDS011;23174;49.462;11.000;2022-11-20T05:30:30;12.32;;;11.13;;
37288;SDS011;23174;49.462;11.000;2022-11-20T05:32:30;12.55;;;11.45;;
37288;SDS011;23174;49.462;11.000;2022-11-20T05:34:31;13.00;;;11.90;;
37288;SDS011;23174;49.462;11.000;2022-11-20T05:36:32;13.25;;;12.05;;
37288;SDS011;23174;49.462;11.000;2022-11-20T05:38:32;12.73;;;11.63;;
37288;SDS011;23174;49.462;11.000;2022-11-20T05:40:33;13.00;;;11.80;;
37288;SDS011;23174;49.462;11.000;2022-11-20T05:42:34;12.55;;;11.45;;
37288;SDS011;23174;49.462;11.000;2022-11-20T05:44:35;12.55;;;11.38;;
37288;SDS011;23174;49.462;11.000;2022-11-20T05:46:36;12.10;;;11.00;;
37288;SDS011;23174;49.462;11.000;2022-11-20T05:48:38;13.15;;;11.90;;
37288;SDS011;23174;49.462;11.000;2022-11-20T05:50:39;11.95;;;10.88;;
37288;SDS011;23174;49.462;11.000;2022-11-20T05:52:40;13.75;;;12.38;;
37288;SDS011;23174;49.462;11.000;2022-11-20T05:54:41;12.13;;;11.10;;
37288;SDS011;23174;49.462;11.000;2022-11-20T05:56:41;13.40;;;12.10;;
37288;SDS011;23174;49.462;11.000;2022-11-20T05:58:42;12.50;;;11.40;;
37288;SDS011;23174;49.462;11.000;2022-11-20T06:00:43;12.88;;;11.60;;
37288;SDS011;23174;49.462;11.000;2022-11-20T06:02:44;12.50;;;11.30;;
37288;SDS011;23174;49.462;11.000;2022-11-20T06:04:44;13.43;;;12.13;;
37288;SDS011;23174;49.462;11.000;2022-11-20T06:06:45;13.65;;;12.38;;
37288;SDS011;23174;49.462;11.000;2022-11-20T06:08:45;12.50;;;11.40;;
37288;SDS011;23174;49.462;11.000;2022-11-20T06:10:46;11.88;;;10.82;;
37288;SDS011;23174;49.462;11.000;2022-11-20T06:12:47;13.25;;;11.98;;
37288;SDS011;23174;49.462;11.000;2022-11-20T06:14:47;13.00;;;11.77;;
37288;SDS011;23174;49.462;11.000;2022-11-20T06:16:48;12.65;;;11.48;;
37288;SDS011;23174;49.462;11.000;2022-11-20T06:18:48;13.55;;;12.25;;
37288;SDS011;23174;49.462;11.000;2022-11-20T06:20:49;13.15;;;11.85;;
37288;SDS011;23174;49.462;11.000;2022-11-20T06:22:49;13.13;;;11.82;;
37288;SDS011;23174;49.462;11.000;2022-11-20T06:24:50;13.35;;;12.10;;
37288;SDS011;23174;49.462;11.000;2022-11-20T06:26:50;11.30;;;10.35;;
37288;SDS011;23174;49.462;11.000;2022-11-20T06:28:52;13.05;;;11.70;;
37288;SDS011;23174;49.462;11.000;2022-11-20T06:30:54;11.82;;;10.73;;
37288;SDS011;23174;49.462;11.000;2022-11-20T06:32:54;11.82;;;10.73;;
37288;SDS011;23174;49.462;11.000;2022-11-20T06:34:55;12.43;;;11.32;;
37288;SDS011;23174;49.462;11.000;2022-11-20T06:36:55;11.02;;;10.15;;
37288;SDS011;23174;49.462;11.000;2022-11-20T06:38:56;11.65;;;10.55;;
37288;SDS011;23174;49.462;11.000;2022-11-20T06:40:56;11.27;;;10.32;;
37288;SDS011;23174;49.462;11.000;2022-11-20T06:42:57;10.90;;;9.95;;
37288;SDS011;23174;49.462;11.000;2022-11-20T06:44:57;11.60;;;10.55;;
37288;SDS011;23174;49.462;11.000;2022-11-20T06:46:58;10.02;;;9.20;;
37288;SDS011;23174;49.462;11.000;2022-11-20T06:48:59;11.68;;;10.57;;
37288;SDS011;23174;49.462;11.000;2022-11-20T06:51:00;11.38;;;10.38;;
37288;SDS011;23174;49.462;11.000;2022-11-20T06:53:04;11.23;;;10.23;;
37288;SDS011;23174;49.462;11.000;2022-11-20T06:55:05;12.10;;;11.00;;
37288;SDS011;23174;49.462;11.000;2022-11-20T06:57:06;11.38;;;10.25;;
37288;SDS011;23174;49.462;11.000;2022-11-20T06:59:06;11.57;;;10.48;;
37288;SDS011;23174;49.462;11.000;2022-11-20T07:01:09;12.27;;;11.18;;
37288;SDS011;23174;49.462;11.000;2022-11-20T07:03:11;11.02;;;10.13;;
37288;SDS011;23174;49.462;11.000;2022-11-20T07:05:12;11.88;;;10.80;;
37288;SDS011;23174;49.462;11.000;2022-11-20T07:07:13;11.75;;;10.75;;
37288;SDS011;23174;49.462;11.000;2022-11-20T07:09:13;11.63;;;10.52;;
37288;SDS011;23174;49.462;11.000;2022-11-20T07:11:14;11.40;;;10.40;;
37288;SDS011;23174;49.462;11.000;2022-11-20T07:13:14;10.73;;;9.82;;
37288;SDS011;23174;49.462;11.000;2022-11-20T07:15:15;11.70;;;10.68;;
37288;SDS011;23174;49.462;11.000;2022-11-20T07:17:16;10.00;;;9.20;;
37288;SDS011;23174;49.462;11.000;2022-11-20T07:19:16;12.10;;;11.00;;
37288;SDS011;23174;49.462;11.000;2022-11-20T07:21:17;11.45;;;10.45;;
37288;SDS011;23174;49.462;11.000;2022-11-20T07:23:17;11.23;;;10.15;;
37288;SDS011;23174;49.462;11.000;2022-11-20T07:25:18;10.88;;;9.98;;
37288;SDS011;23174;49.462;11.000;2022-11-20T07:27:19;11.45;;;10.45;;
37288;SDS011;23174;49.462;11.000;2022-11-20T07:29:19;11.32;;;10.32;;
37288;SDS011;23174;49.462;11.000;2022-11-20T07:31:20;11.13;;;10.13;;
37288;SDS011;23174;49.462;11.000;2022-11-20T07:33:20;10.57;;;9.68;;
37288;SDS011;23174;49.462;11.000;2022-11-20T07:35:21;10.57;;;9.57;;
37288;SDS011;23174;49.462;11.000;2022-11-20T07:37:23;11.00;;;10.02;;
37288;SDS011;23174;49.462;11.000;2022-11-20T07:39:23;10.93;;;9.68;;
37288;SDS011;23174;49.462;11.000;2022-11-20T07:41:24;11.30;;;10.30;;
37288;SDS011;23174;49.462;11.000;2022-11-20T07:43:24;10.63;;;9.57;;
37288;SDS011;23174;49.462;11.000;2022-11-20T07:45:25;11.25;;;10.25;;
37288;SDS011;23174;49.462;11.000;2022-11-20T07:47:26;10.95;;;9.95;;
37288;SDS011;23174;49.462;11.000;2022-11-20T07:49:26;10.73;;;9.82;;
37288;SDS011;23174;49.462;11.000;2022-11-20T07:51:27;10.65;;;9.60;;
37288;SDS011;23174;49.462;11.000;2022-11-20T07:53:29;11.02;;;10.13;;
37288;SDS011;23174;49.462;11.000;2022-11-20T07:55:29;10.52;;;9.63;;
37288;SDS011;23174;49.462;11.000;2022-11-20T07:57:30;10.60;;;9.80;;
37288;SDS011;23174;49.462;11.000;2022-11-20T07:59:31;10.90;;;10.00;;
37288;SDS011;23174;49.462;11.000;2022-11-20T08:01:31;10.48;;;9.48;;
37288;SDS011;23174;49.462;11.000;2022-11-20T08:03:32;10.70;;;9.77;;
37288;SDS011;23174;49.462;11.000;2022-11-20T08:05:33;10.90;;;9.90;;
37288;SDS011;23174;49.462;11.000;2022-11-20T08:07:40;10.95;;;9.95;;
37288;SDS011;23174;49.462;11.000;2022-11-20T08:09:42;10.88;;;9.90;;
37288;SDS011;23174;49.462;11.000;2022-11-20T08:11:43;10.52;;;9.63;;
37288;SDS011;23174;49.462;11.000;2022-11-20T08:14:19;11.38;;;10.27;;
37288;SDS011;23174;49.462;11.000;2022-11-20T08:16:19;10.30;;;9.43;;
37288;SDS011;23174;49.462;11.000;2022-11-20T08:18:21;11.77;;;10.68;;
37288;SDS011;23174;49.462;11.000;2022-11-20T08:20:22;11.70;;;10.60;;
37288;SDS011;23174;49.462;11.000;2022-11-20T08:22:22;13.00;;;11.05;;
37288;SDS011;23174;49.462;11.000;2022-11-20T08:24:23;12.18;;;11.07;;
37288;SDS011;23174;49.462;11.000;2022-11-20T08:26:25;11.57;;;10.55;;
37288;SDS011;23174;49.462;11.000;2022-11-20T08:28:25;11.85;;;10.75;;
37288;SDS011;23174;49.462;11.000;2022-11-20T08:30:26;11.52;;;10.45;;
37288;SDS011;23174;49.462;11.000;2022-11-20T08:32:27;10.68;;;9.77;;
37288;SDS011;23174;49.462;11.000;2022-11-20T08:34:27;11.98;;;10.90;;
37288;SDS011;23174;49.462;11.000;2022-11-20T08:36:28;12.07;;;10.88;;
37288;SDS011;23174;49.462;11.000;2022-11-20T08:38:29;11.93;;;10.82;;
37288;SDS011;23174;49.462;11.000;2022-11-20T08:40:30;11.35;;;10.27;;
37288;SDS011;23174;49.462;11.000;2022-11-20T08:42:31;12.50;;;11.25;;
37288;SDS011;23174;49.462;11.000;2022-11-20T08:44:32;11.30;;;10.30;;
37288;SDS011;23174;49.462;11.000;2022-11-20T08:46:33;11.50;;;10.48;;
37288;SDS011;23174;49.462;11.000;2022-11-20T08:48:39;11.40;;;10.35;;
37288;SDS011;23174;49.462;11.000;2022-11-20T08:50:39;12.77;;;11.57;;
37288;SDS011;23174;49.462;11.000;2022-11-20T08:52:40;11.13;;;10.07;;
37288;SDS011;23174;49.462;11.000;2022-11-20T08:54:41;12.00;;;11.00;;
37288;SDS011;23174;49.462;11.000;2022-11-20T08:56:41;11.27;;;10.27;;
37288;SDS011;23174;49.462;11.000;2022-11-20T08:58:42;11.32;;;10.32;;
37288;SDS011;23174;49.462;11.000;2022-11-20T09:00:43;11.85;;;10.75;;
37288;SDS011;23174;49.462;11.000;2022-11-20T09:02:43;11.80;;;10.70;;
37288;SDS011;23174;49.462;11.000;2022-11-20T09:04:44;12.80;;;11.70;;
37288;SDS011;23174;49.462;11.000;2022-11-20T09:06:44;13.88;;;12.48;;
37288;SDS011;23174;49.462;11.000;2022-11-20T09:08:45;13.07;;;10.95;;
37288;SDS011;23174;49.462;11.000;2022-11-20T09:10:46;12.18;;;10.90;;
37288;SDS011;23174;49.462;11.000;2022-11-20T09:12:52;12.05;;;10.88;;
37288;SDS011;23174;49.462;11.000;2022-11-20T09:14:53;12.23;;;11.02;;
37288;SDS011;23174;49.462;11.000;2022-11-20T09:16:57;15.48;;;11.88;;
37288;SDS011;23174;49.462;11.000;2022-11-20T09:18:57;13.48;;;12.07;;
37288;SDS011;23174;49.462;11.000;2022-11-20T09:20:58;14.30;;;12.90;;
37288;SDS011;23174;49.462;11.000;2022-11-20T09:22:59;14.57;;;13.07;;
37288;SDS011;23174;49.462;11.000;2022-11-20T09:25:00;14.13;;;12.70;;
37288;SDS011;23174;49.462;11.000;2022-11-20T09:27:01;12.50;;;11.30;;
37288;SDS011;23174;49.462;11.000;2022-11-20T09:29:03;11.65;;;10.63;;
37288;SDS011;23174;49.462;11.000;2022-11-20T09:33:36;11.80;;;10.60;;
37288;SDS011;23174;49.462;11.000;2022-11-20T09:35:37;11.35;;;10.35;;
37288;SDS011;23174;49.462;11.000;2022-11-20T09:37:37;10.50;;;9.45;;
37288;SDS011;23174;49.462;11.000;2022-11-20T09:39:38;12.07;;;10.07;;
37288;SDS011;23174;49.462;11.000;2022-11-20T09:43:55;10.52;;;9.52;;
37288;SDS011;23174;49.462;11.000;2022-11-20T09:46:12;9.02;;;8.30;;
37288;SDS011;23174;49.462;11.000;2022-11-20T09:48:42;9.43;;;8.63;;
37288;SDS011;23174;49.462;11.000;2022-11-20T09:50:53;9.27;;;8.47;;
37288;SDS011;23174;49.462;11.000;2022-11-20T09:55:38;9.95;;;9.05;;
37288;SDS011;23174;49.462;11.000;2022-11-20T09:57:40;10.55;;;9.55;;
37288;SDS011;23174;49.462;11.000;2022-11-20T09:59:46;10.73;;;9.48;;
37288;SDS011;23174;49.462;11.000;2022-11-20T10:02:00;10.68;;;9.57;;
37288;SDS011;23174;49.462;11.000;2022-11-20T10:04:18;12.00;;;10.85;;
37288;SDS011;23174;49.462;11.000;2022-11-20T10:06:22;10.63;;;9.63;;
37288;SDS011;23174;49.462;11.000;2022-11-20T10:08:32;10.57;;;9.55;;
37288;SDS011;23174;49.462;11.000;2022-11-20T10:11:00;11.57;;;10.30;;
37288;SDS011;23174;49.462;11.000;2022-11-20T10:15:35;11.95;;;10.75;;
37288;SDS011;23174;49.462;11.000;2022-11-20T10:20:14;12.93;;;11.63;;
37288;SDS011;23174;49.462;11.000;2022-11-20T10:22:27;11.23;;;10.23;;
37288;SDS011;23174;49.462;11.000;2022-11-20T10:27:23;12.40;;;11.07;;
37288;SDS011;23174;49.462;11.000;2022-11-20T10:29:36;12.27;;;11.10;;
37288;SDS011;23174;49.462;11.000;2022-11-20T10:31:40;12.10;;;10.70;;
37288;SDS011;23174;49.462;11.000;2022-11-20T10:33:44;11.60;;;10.32;;
37288;SDS011;23174;49.462;11.000;2022-11-20T10:35:54;11.38;;;10.27;;
37288;SDS011;23174;49.462;11.000;2022-11-20T10:38:01;12.32;;;10.90;;
37288;SDS011;23174;49.462;11.000;2022-11-20T10:40:18;12.98;;;11.57;;
37288;SDS011;23174;49.462;11.000;2022-11-20T10:42:34;11.73;;;10.63;;
37288;SDS011;23174;49.462;11.000;2022-11-20T10:44:43;11.35;;;10.25;;
37288;SDS011;23174;49.462;11.000;2022-11-20T10:47:00;11.82;;;10.63;;
37288;SDS011;23174;49.462;11.000;2022-11-20T10:49:01;11.32;;;10.23;;
37288;SDS011;23174;49.462;11.000;2022-11-20T10:53:18;11.07;;;10.07;;
37288;SDS011;23174;49.462;11.000;2022-11-20T10:58:04;11.38;;;10.27;;
37288;SDS011;23174;49.462;11.000;2022-11-20T11:00:23;11.55;;;10.35;;
37288;SDS011;23174;49.462;11.000;2022-11-20T11:02:31;12.00;;;10.80;;
37288;SDS011;23174;49.462;11.000;2022-11-20T11:04:42;10.90;;;9.93;;
37288;SDS011;23174;49.462;11.000;2022-11-20T11:06:46;10.38;;;9.48;;
37288;SDS011;23174;49.462;11.000;2022-11-20T11:08:49;12.02;;;10.88;;
37288;SDS011;23174;49.462;11.000;2022-11-20T11:10:53;15.25;;;13.63;;
37288;SDS011;23174;49.462;11.000;2022-11-20T11:12:57;12.93;;;11.63;;
37288;SDS011;23174;49.462;11.000;2022-11-20T11:14:57;15.45;;;13.05;;
37288;SDS011;23174;49.462;11.000;2022-11-20T11:16:58;13.57;;;12.00;;
37288;SDS011;23174;49.462;11.000;2022-11-20T11:19:11;13.65;;;12.23;;
37288;SDS011;23174;49.462;11.000;2022-11-20T11:21:13;17.42;;;14.13;;
37288;SDS011;23174;49.462;11.000;2022-11-20T11:25:33;13.35;;;11.98;;
37288;SDS011;23174;49.462;11.000;2022-11-20T11:27:35;11.73;;;10.27;;
37288;SDS011;23174;49.462;11.000;2022-11-20T11:29:46;10.50;;;9.48;;
37288;SDS011;23174;49.462;11.000;2022-11-20T11:31:47;11.00;;;9.90;;
37288;SDS011;23174;49.462;11.000;2022-11-20T11:33:47;11.07;;;9.98;;
37288;SDS011;23174;49.462;11.000;2022-11-20T11:35:52;11.60;;;10.48;;
37288;SDS011;23174;49.462;11.000;2022-11-20T11:38:05;10.45;;;9.45;;
37288;SDS011;23174;49.462;11.000;2022-11-20T11:40:12;9.75;;;8.85;;
37288;SDS011;23174;49.462;11.000;2022-11-20T11:42:16;9.40;;;8.50;;
37288;SDS011;23174;49.462;11.000;2022-11-20T11:44:19;8.88;;;8.18;;
37288;SDS011;23174;49.462;11.000;2022-11-20T11:46:54;9.75;;;8.88;;
37288;SDS011;23174;49.462;11.000;2022-11-20T11:51:01;10.07;;;9.05;;
37288;SDS011;23174;49.462;11.000;2022-11-20T11:53:17;10.10;;;9.18;;
37288;SDS011;23174;49.462;11.000;2022-11-20T11:55:26;9.43;;;8.52;;
37288;SDS011;23174;49.462;11.000;2022-11-20T11:57:59;10.63;;;9.73;;
37288;SDS011;23174;49.462;11.000;2022-11-20T12:02:15;9.15;;;8.32;;
37288;SDS011;23174;49.462;11.000;2022-11-20T12:06:45;11.18;;;10.07;;
37288;SDS011;23174;49.462;11.000;2022-11-20T12:08:59;13.60;;;11.68;;
37288;SDS011;23174;49.462;11.000;2022-11-20T12:11:11;18.35;;;13.43;;
37288;SDS011;23174;49.462;11.000;2022-11-20T12:15:32;11.63;;;10.52;;
37288;SDS011;23174;49.462;11.000;2022-11-20T12:17:34;10.02;;;9.23;;
37288;SDS011;23174;49.462;11.000;2022-11-20T12:19:34;9.93;;;8.95;;
37288;SDS011;23174;49.462;11.000;2022-11-20T12:21:56;10.40;;;9.50;;
37288;SDS011;23174;49.462;11.000;2022-11-20T12:28:42;8.90;;;8.10;;
37288;SDS011;23174;49.462;11.000;2022-11-20T12:30:59;9.27;;;8.27;;